Search for airport 
image banner adimage banner adimage banner ad
image banner ad

KPNE - Northeast Philadelphia

Located in Philadelphia, United States

ICAO - PNE, IATA -

Data provided by Airmate  

General information

Coordinates: N40°4'55" W75°0'38"
Elevation is 120 feet MSL.
Magnetic variation is -12° East
View others Airports in Pennsylvania

Operational data

Special qualification required
Current time UTC:
Current local time:
Weather
METAR: KPNE 091554Z 22010G14KT 10SM BKN100 14/04 A3010 RMK AO2 SLP192 T01440044 $
TAF: KPNE 091120Z 0912/1012 VRB04KT P6SM SCT250 FM092200 15006KT P6SM VCSH OVC025 FM100400 12005KT P6SM BKN045 WS020/22040KT FM101100 31008KT P6SM SCT035
View NOTAMs / SUP AIP / TFR affecting this airport [VIEW]
Communications frequencies: [VIEW]

Runways:

RWY identifierQFULength (ft)Width (ft)SurfaceLDA (ft)
0648°7000100ASPH
24228°7000100ASPH
15141°5000150ASPH
33321°5000150ASPH

Airport contact information

Address: Philadelphia United States

Other aviation service providers

Flight schools

Sky River Helicopters

Sky River Helicopters

Legacy Aviation

Legacy Aviation

Satellite view of KPNE